Time;durP1;ratioP1;P1;durP2;ratioP2;P2;SDS_P1;SDS_P2;PMS_P1;PMS_P2;Temp;Humidity;BMP_temperature;BMP_pressure;BME280_temperature;BME280_humidity;BME280_pressure;Samples;Min_cycle;Max_cycle;Signal;HPM_P1;HPM_P2
2023/08/15 00:03:02;;;;;;;5.85;3.20;;;29.10;21.70;;;;;;20997297;28;20083;-57
2023/08/15 00:13:03;;;;;;;9.98;3.58;;;29.10;22.00;;;;;;20996763;28;20142;-57
2023/08/15 00:23:04;;;;;;;6.30;2.90;;;29.00;22.20;;;;;;20995306;28;20147;-56
2023/08/15 00:33:04;;;;;;;4.10;2.72;;;28.90;22.20;;;;;;20994718;28;20502;-57
2023/08/15 00:43:06;;;;;;;5.15;3.38;;;29.10;22.20;;;;;;21010727;28;20084;-56
2023/08/15 00:53:07;;;;;;;5.68;3.22;;;29.00;22.80;;;;;;21011864;28;20044;-58
2023/08/15 01:03:09;;;;;;;6.30;2.90;;;28.90;22.70;;;;;;21011213;28;20040;-57
2023/08/15 01:13:25;;;;;;;7.38;3.00;;;28.60;22.80;;;;;;21008833;28;20063;-57
2023/08/15 01:23:53;;;;;;;5.50;3.17;;;28.20;23.00;;;;;;21009384;28;20158;-57
2023/08/15 01:34:09;;;;;;;7.57;3.10;;;28.10;23.30;;;;;;21004320;28;20127;-57
2023/08/15 01:44:11;;;;;;;12.65;5.90;;;27.90;23.70;;;;;;21002811;28;20412;-57
2023/08/15 01:54:12;;;;;;;6.13;3.83;;;27.60;25.00;;;;;;21001902;28;20040;-56
2023/08/15 02:04:13;;;;;;;8.00;3.77;;;27.50;25.30;;;;;;21001534;28;20047;-57
2023/08/15 02:14:13;;;;;;;6.70;3.50;;;27.40;25.20;;;;;;21000682;28;20123;-57
2023/08/15 02:24:14;;;;;;;4.70;3.30;;;27.60;25.30;;;;;;21000325;28;20371;-55
2023/08/15 02:34:18;;;;;;;7.85;3.75;;;27.60;25.10;;;;;;20959223;28;1232783;-56
2023/08/15 02:44:19;;;;;;;10.57;4.57;;;27.50;24.20;;;;;;21002567;28;20075;-56
2023/08/15 02:54:20;;;;;;;11.93;4.10;;;27.30;24.10;;;;;;21000790;28;20083;-56
2023/08/15 03:04:20;;;;;;;13.73;6.87;;;27.10;24.40;;;;;;21000239;28;20297;-57
2023/08/15 03:14:21;;;;;;;10.93;4.63;;;27.00;24.70;;;;;;20999107;28;20040;-56
2023/08/15 03:24:22;;;;;;;4.83;3.47;;;27.00;24.80;;;;;;20999469;28;20041;-57
2023/08/15 03:34:23;;;;;;;10.33;4.40;;;26.70;26.20;;;;;;20997641;28;20052;-56
2023/08/15 03:44:24;;;;;;;6.00;3.63;;;26.30;26.40;;;;;;20996644;28;20044;-56
2023/08/15 03:54:25;;;;;;;8.00;3.53;;;25.90;26.50;;;;;;20996367;28;20490;-57
2023/08/15 04:04:25;;;;;;;6.33;4.37;;;25.70;26.40;;;;;;20995845;28;20490;-57
2023/08/15 04:14:27;;;;;;;8.63;3.93;;;25.30;27.00;;;;;;20996541;28;20401;-57
2023/08/15 04:24:28;;;;;;;;;;;25.30;27.10;;;;;;20996598;28;20048;-57
2023/08/15 04:34:29;;;;;;;5.63;2.95;;;25.50;26.50;;;;;;20997112;28;19920;-58
2023/08/15 04:44:30;;;;;;;9.23;3.97;;;25.70;25.60;;;;;;20996002;28;20064;-58
2023/08/15 04:54:30;;;;;;;9.03;3.13;;;25.70;25.00;;;;;;20995608;28;20040;-56
2023/08/15 05:04:31;;;;;;;9.77;4.07;;;25.70;25.00;;;;;;20994968;28;20354;-58
2023/08/15 05:14:32;;;;;;;6.00;3.57;;;25.60;24.90;;;;;;20994695;28;20041;-56
2023/08/15 05:24:32;;;;;;;6.33;3.83;;;25.50;25.10;;;;;;21001865;28;20040;-57
2023/08/15 05:34:33;;;;;;;10.37;3.70;;;25.50;25.00;;;;;;21007309;28;20125;-58
2023/08/15 05:44:34;;;;;;;6.30;3.70;;;25.40;25.50;;;;;;21007849;28;20048;-57
2023/08/15 05:54:35;;;;;;;9.60;3.70;;;25.10;27.60;;;;;;21005436;28;20041;-57
2023/08/15 06:04:36;;;;;;;12.70;4.53;;;24.60;27.80;;;;;;21006125;28;20563;-57
2023/08/15 06:14:40;;;;;;;17.13;10.63;;;24.30;28.40;;;;;;21005061;28;20551;-57
2023/08/15 06:24:41;;;;;;;5.97;3.20;;;24.20;28.70;;;;;;21004332;28;20094;-57
2023/08/15 06:34:42;;;;;;;9.00;3.97;;;24.20;28.40;;;;;;21001566;28;20048;-57
2023/08/15 06:44:43;;;;;;;4.68;3.50;;;24.20;28.50;;;;;;21001060;28;20052;-57
2023/08/15 06:54:44;;;;;;;8.63;3.57;;;24.60;28.20;;;;;;21000329;28;20051;-58
2023/08/15 07:04:47;;;;;;;11.90;4.20;;;24.90;27.70;;;;;;21000438;28;20079;-57
2023/08/15 07:14:47;;;;;;;9.15;3.70;;;25.20;27.80;;;;;;20999778;28;20048;-57
2023/08/15 07:24:48;;;;;;;12.07;4.27;;;25.80;32.20;;;;;;20999091;28;20076;-57
2023/08/15 07:34:49;;;;;;;6.50;3.50;;;26.40;34.00;;;;;;20996634;28;20078;-57
2023/08/15 07:44:50;;;;;;;9.53;3.87;;;26.90;34.10;;;;;;20995434;28;20048;-58
2023/08/15 07:54:50;;;;;;;9.30;3.10;;;27.60;32.80;;;;;;20995627;28;20098;-57
2023/08/15 08:04:51;;;;;;;10.13;3.27;;;28.00;35.90;;;;;;20994994;28;20535;-58
2023/08/15 08:14:52;;;;;;;8.70;3.80;;;28.10;35.50;;;;;;20996192;28;20485;-58
2023/08/15 08:24:53;;;;;;;;;;;28.40;35.00;;;;;;20995856;28;20044;-57
2023/08/15 08:34:53;;;;;;;8.13;3.33;;;28.60;34.40;;;;;;20994753;28;20292;-59
2023/08/15 08:44:55;;;;;;;;;;;28.80;34.10;;;;;;20995001;28;20554;-58
2023/08/15 08:54:56;;;;;;;8.20;3.97;;;28.90;34.10;;;;;;20995224;28;20318;-59
2023/08/15 09:04:56;;;;;;;8.82;3.97;;;29.00;33.70;;;;;;21009869;28;20380;-58
2023/08/15 09:14:57;;;;;;;7.65;4.03;;;29.20;33.30;;;;;;21009342;28;20063;-56
2023/08/15 09:24:58;;;;;;;8.32;3.40;;;29.50;33.50;;;;;;21006566;28;20145;-58
2023/08/15 09:34:59;;;;;;;7.47;3.60;;;29.90;32.80;;;;;;21006681;28;20532;-57
2023/08/15 09:45:00;;;;;;;10.82;3.40;;;29.90;33.20;;;;;;21007287;28;20052;-58
2023/08/15 09:55:01;;;;;;;7.85;2.83;;;29.90;33.40;;;;;;21006661;28;20052;-58
2023/08/15 10:05:06;;;;;;;7.78;3.10;;;30.10;33.60;;;;;;21005609;28;20538;-58
2023/08/15 10:15:08;;;;;;;8.50;3.67;;;30.30;33.60;;;;;;21004723;28;20048;-58
2023/08/15 10:25:27;;;;;;;7.38;3.20;;;30.40;33.00;;;;;;21002712;28;20040;-59
2023/08/15 10:35:32;;;;;;;4.45;2.95;;;30.60;31.20;;;;;;21002714;28;20097;-58
2023/08/15 10:45:39;;;;;;;7.47;3.08;;;30.80;30.60;;;;;;21001558;28;20047;-58
2023/08/15 10:55:40;;;;;;;10.00;3.10;;;30.90;29.70;;;;;;21001255;28;20079;-57
2023/08/15 11:05:42;;;;;;;7.15;3.03;;;31.30;26.70;;;;;;20999110;28;20056;-59
2023/08/15 11:15:46;;;;;;;9.05;3.63;;;31.60;25.50;;;;;;20998371;28;20051;-60
2023/08/15 11:25:46;;;;;;;5.43;2.70;;;31.90;24.20;;;;;;20998308;28;20044;-60
2023/08/15 11:35:47;;;;;;;6.13;3.70;;;32.10;24.20;;;;;;20998902;28;20094;-58
2023/08/15 11:45:48;;;;;;;6.55;3.58;;;32.20;24.10;;;;;;20996997;28;20098;-57
2023/08/15 11:55:49;;;;;;;6.38;3.20;;;32.40;23.70;;;;;;20996498;28;20123;-58
2023/08/15 12:05:54;;;;;;;7.25;3.30;;;32.70;21.50;;;;;;20996402;28;20049;-58
2023/08/15 12:15:54;;;;;;;12.50;6.85;;;33.00;21.90;;;;;;20995656;28;20425;-57
2023/08/15 12:25:56;;;;;;;5.25;3.40;;;33.20;21.30;;;;;;20995417;28;20048;-61
2023/08/15 12:35:56;;;;;;;5.60;3.15;;;33.30;21.10;;;;;;21005816;28;20048;-59
2023/08/15 12:45:57;;;;;;;7.63;2.78;;;33.50;20.40;;;;;;21009861;28;20067;-59
2023/08/15 12:55:58;;;;;;;5.95;3.30;;;33.70;19.20;;;;;;21010254;28;20075;-58
2023/08/15 13:05:59;;;;;;;5.40;2.47;;;34.00;19.80;;;;;;21010061;28;20086;-58
2023/08/15 13:15:59;;;;;;;6.47;2.65;;;33.90;18.30;;;;;;21007632;28;20135;-59
2023/08/15 13:26:00;;;;;;;3.85;2.10;;;34.00;18.90;;;;;;21008512;28;20437;-58
2023/08/15 13:36:01;;;;;;;5.47;2.92;;;34.30;18.10;;;;;;21006394;28;20056;-58
2023/08/15 13:46:06;;;;;;;5.43;2.63;;;34.50;18.40;;;;;;21006332;28;20456;-59
2023/08/15 13:56:06;;;;;;;5.97;2.60;;;34.60;18.30;;;;;;21006298;28;20044;-59
2023/08/15 14:06:07;;;;;;;4.53;2.40;;;34.60;18.60;;;;;;21005873;28;20044;-58
2023/08/15 14:16:08;;;;;;;4.07;2.20;;;34.80;17.60;;;;;;21005149;28;20173;-59
2023/08/15 14:26:09;;;;;;;5.45;2.90;;;34.90;17.00;;;;;;21004249;28;20044;-58
2023/08/15 14:36:10;;;;;;;4.72;2.40;;;35.00;16.90;;;;;;21002058;28;20048;-58
2023/08/15 14:46:10;;;;;;;5.80;2.63;;;35.10;17.10;;;;;;21002756;28;20126;-59
2023/08/15 14:56:11;;;;;;;8.55;2.67;;;35.00;17.00;;;;;;21000439;28;20048;-58
2023/08/15 15:06:12;;;;;;;5.95;3.50;;;35.20;16.60;;;;;;21000631;28;20036;-59
2023/08/15 15:16:12;;;;;;;6.13;2.30;;;35.00;16.80;;;;;;20998679;28;20045;-59
2023/08/15 15:26:13;;;;;;;7.43;4.70;;;35.10;16.70;;;;;;20999097;28;20493;-59
2023/08/15 15:36:14;;;;;;;4.18;2.13;;;35.00;16.70;;;;;;20999271;28;20071;-59
2023/08/15 15:46:16;;;;;;;6.30;2.72;;;35.10;15.90;;;;;;20996187;28;20081;-58
2023/08/15 15:56:17;;;;;;;5.35;2.67;;;35.00;16.10;;;;;;20997041;28;20154;-58
2023/08/15 16:06:17;;;;;;;3.50;2.38;;;35.00;16.30;;;;;;20995294;28;20386;-58
2023/08/15 16:16:18;;;;;;;2.95;1.83;;;35.00;16.30;;;;;;20994393;28;20128;-58
2023/08/15 16:26:19;;;;;;;4.65;2.22;;;35.10;16.10;;;;;;20995116;28;20470;-59
2023/08/15 16:36:20;;;;;;;4.35;2.20;;;35.30;16.60;;;;;;20993335;28;20060;-59
2023/08/15 16:46:20;;;;;;;4.78;2.35;;;35.20;16.60;;;;;;20993339;28;20048;-58
2023/08/15 16:56:21;;;;;;;5.85;3.00;;;35.00;16.90;;;;;;20994556;28;20482;-57
2023/08/15 17:06:22;;;;;;;4.55;2.58;;;34.90;17.40;;;;;;20992579;28;20410;-58
2023/08/15 17:16:23;;;;;;;6.07;2.80;;;34.80;16.60;;;;;;20994500;28;20047;-58
2023/08/15 17:26:26;;;;;;;3.85;2.47;;;34.60;17.40;;;;;;21008637;28;20097;-59
2023/08/15 17:36:27;;;;;;;6.25;3.05;;;34.40;17.40;;;;;;21008985;28;20053;-59
2023/08/15 17:46:28;;;;;;;6.22;3.67;;;34.40;17.20;;;;;;21005680;28;20052;-60
2023/08/15 17:56:29;;;;;;;6.73;2.73;;;34.10;17.70;;;;;;21006119;28;20516;-58
2023/08/15 18:06:30;;;;;;;5.68;3.35;;;34.00;18.10;;;;;;21005031;28;20308;-59
2023/08/15 18:16:31;;;;;;;7.22;4.10;;;33.80;18.10;;;;;;21005289;28;20123;-59
2023/08/15 18:26:32;;;;;;;5.72;2.90;;;33.70;18.40;;;;;;21002983;28;20101;-58
2023/08/15 18:36:33;;;;;;;7.05;3.47;;;33.60;18.40;;;;;;21003618;28;20052;-59
2023/08/15 18:46:36;;;;;;;6.07;3.42;;;33.40;18.20;;;;;;21001626;28;20509;-58
2023/08/15 18:56:37;;;;;;;9.82;4.45;;;33.20;18.40;;;;;;21001954;28;20044;-59
2023/08/15 19:06:37;;;;;;;5.80;3.03;;;33.10;18.30;;;;;;20999348;28;20041;-60
2023/08/15 19:16:38;;;;;;;6.78;4.47;;;32.90;18.80;;;;;;20998125;28;20490;-60
2023/08/15 19:26:40;;;;;;;5.25;3.20;;;32.70;18.80;;;;;;20998556;28;20482;-60
2023/08/15 19:36:41;;;;;;;6.03;3.78;;;32.50;18.80;;;;;;20998366;28;20406;-58
2023/08/15 19:46:42;;;;;;;3.53;3.00;;;32.30;19.00;;;;;;20995918;28;20067;-58
2023/08/15 19:56:43;;;;;;;6.60;3.65;;;32.10;19.20;;;;;;20995011;28;20044;-58
2023/08/15 20:06:44;;;;;;;8.90;4.00;;;32.00;19.40;;;;;;20994994;28;20047;-59
2023/08/15 20:16:45;;;;;;;5.88;4.40;;;31.80;19.70;;;;;;20994372;28;20512;-59
2023/08/15 20:26:46;;;;;;;6.30;3.30;;;31.60;19.80;;;;;;20993993;28;20040;-58
2023/08/15 20:36:46;;;;;;;3.90;2.88;;;31.50;20.40;;;;;;20995270;28;20494;-60
2023/08/15 20:46:49;;;;;;;9.13;4.38;;;31.40;20.80;;;;;;20994745;28;20141;-59
2023/08/15 20:56:49;;;;;;;5.07;4.07;;;31.20;21.00;;;;;;21003708;28;20052;-59
2023/08/15 21:06:52;;;;;;;6.68;3.97;;;31.00;21.50;;;;;;21008615;28;20083;-58
2023/08/15 21:16:52;;;;;;;6.05;3.85;;;30.90;21.70;;;;;;21009312;28;20141;-59
2023/08/15 21:26:53;;;;;;;5.50;3.70;;;30.80;21.80;;;;;;21007190;28;20132;-59
2023/08/15 21:36:54;;;;;;;5.90;3.22;;;30.70;21.70;;;;;;21008082;28;20040;-58
2023/08/15 21:46:55;;;;;;;5.68;2.83;;;30.60;21.60;;;;;;21007307;28;20063;-58
2023/08/15 21:57:02;;;;;;;5.30;3.30;;;30.60;20.90;;;;;;21006642;28;20044;-58
2023/08/15 22:07:03;;;;;;;7.65;3.30;;;30.70;20.60;;;;;;21005345;28;20051;-60
2023/08/15 22:17:04;;;;;;;4.82;3.15;;;30.60;20.80;;;;;;21005113;28;20044;-59
2023/08/15 22:27:04;;;;;;;5.88;3.40;;;30.70;21.20;;;;;;21004482;28;20052;-58
2023/08/15 22:37:05;;;;;;;5.88;3.45;;;30.70;21.00;;;;;;21003447;28;20108;-57
2023/08/15 22:47:06;;;;;;;6.85;3.67;;;30.60;21.30;;;;;;21001596;28;20106;-57
2023/08/15 22:57:07;;;;;;;5.15;3.08;;;30.60;21.80;;;;;;21000707;28;20466;-58
2023/08/15 23:07:07;;;;;;;6.75;4.05;;;30.40;21.90;;;;;;21001173;28;20585;-59
2023/08/15 23:17:08;;;;;;;7.00;5.32;;;30.20;22.30;;;;;;20999420;28;20040;-58
2023/08/15 23:27:09;;;;;;;6.32;3.90;;;30.10;22.90;;;;;;20999360;28;20063;-58
2023/08/15 23:37:10;;;;;;;6.03;3.75;;;29.90;22.90;;;;;;20998598;28;20076;-58
2023/08/15 23:47:11;;;;;;;5.95;2.92;;;29.80;22.70;;;;;;20998342;28;20057;-58
2023/08/15 23:57:12;;;;;;;8.98;3.50;;;29.70;23.10;;;;;;20998038;28;20190;-58
